Terminal Aerodrome Forecast
Issued by NWS Louisville, KY

Home | Current Version | Previous Version | Text Only | Print | Product List | Glossary On
Versions: 1 2 3 4 5 6 7 8 9 10 11 12 13 14 15
913
FTUS43 KLMK 211517 AAA
TAFLEX
TAF AMD
KLEX 211517Z 2115/2212 19011KT P6SM BKN015
      TEMPO 2118/2120 SCT015 BKN025
     FM212000 22010KT P6SM VCTS BKN025CB
     FM212300 24009KT P6SM SCT022 BKN050
     FM220100 VRB06KT P6SM BKN250
     FM220700 28005KT P6SM FEW250=

USA.gov is the U.S. government's official web portal to all federal, state and local government web resources and services.